Time;durP1;ratioP1;P1;durP2;ratioP2;P2;SDS_P1;SDS_P2;PMS_P1;PMS_P2;Temp;Humidity;BMP_temperature;BMP_pressure;BME280_temperature;BME280_humidity;BME280_pressure;Samples;Min_cycle;Max_cycle;Signal;HPM_P1;HPM_P2
2021/04/07 00:01:17;;;;;;;2.15;1.10;;;20.90;32.30;;;;;;4990420;28;20546;-79
2021/04/07 00:07:05;;;;;;;3.50;1.25;;;20.90;32.30;;;;;;4992431;28;20041;-79
2021/04/07 00:09:30;;;;;;;2.08;1.00;;;20.90;32.30;;;;;;4978377;28;20422;-79
2021/04/07 00:11:56;;;;;;;2.78;0.80;;;20.90;32.30;;;;;;4994807;28;20030;-79
2021/04/07 00:14:21;;;;;;;3.53;1.35;;;20.90;32.40;;;;;;4975802;28;20509;-79
2021/04/07 00:16:48;;;;;;;3.60;1.13;;;20.90;32.30;;;;;;4982777;28;20434;-79
2021/04/07 00:19:13;;;;;;;2.92;0.93;;;20.90;32.30;;;;;;4981742;28;20065;-79
2021/04/07 00:21:39;;;;;;;0.88;0.60;;;20.90;33.00;;;;;;4978666;28;20516;-78
2021/04/07 00:24:05;;;;;;;2.30;0.52;;;20.90;32.30;;;;;;4997353;28;20383;-80
2021/04/07 00:26:30;;;;;;;3.88;1.00;;;20.90;32.20;;;;;;4975195;28;20082;-80
2021/04/07 00:28:56;;;;;;;2.65;0.65;;;20.90;32.20;;;;;;4975225;28;20041;-79
2021/04/07 00:31:21;;;;;;;1.48;0.60;;;20.90;32.10;;;;;;4973920;28;20097;-80
2021/04/07 00:33:47;;;;;;;5.40;0.70;;;20.90;32.10;;;;;;4990736;28;20108;-80
2021/04/07 00:36:12;;;;;;;1.85;0.80;;;20.90;32.10;;;;;;4993004;28;20069;-80
2021/04/07 00:38:38;;;;;;;2.17;0.80;;;20.90;32.10;;;;;;4996603;28;20062;-80
2021/04/07 00:41:04;;;;;;;1.73;0.70;;;20.90;32.80;;;;;;4991082;28;20030;-77
2021/04/07 00:43:29;;;;;;;3.42;1.20;;;20.90;32.10;;;;;;4974232;28;20022;-80
2021/04/07 00:45:55;;;;;;;4.40;0.80;;;20.90;32.10;;;;;;4970736;28;20026;-80
2021/04/07 00:48:20;;;;;;;2.20;0.82;;;20.90;32.10;;;;;;4997807;28;20026;-80
2021/04/07 00:50:46;;;;;;;0.90;0.68;;;20.80;32.10;;;;;;4972324;28;20053;-80
2021/04/07 00:53:11;;;;;;;2.88;0.80;;;20.90;32.10;;;;;;4987314;28;20109;-80
2021/04/07 00:55:44;;;;;;;4.72;0.75;;;20.90;32.10;;;;;;4965793;28;20022;-79
2021/04/07 00:58:09;;;;;;;4.30;1.00;;;20.80;32.00;;;;;;4989037;28;20602;-79
2021/04/07 01:00:35;;;;;;;2.08;0.50;;;20.80;32.10;;;;;;4972253;28;20046;-79
2021/04/07 01:03:02;;;;;;;3.53;0.77;;;20.80;31.90;;;;;;4974863;28;20042;-79
2021/04/07 01:05:28;;;;;;;2.05;0.50;;;20.80;32.00;;;;;;4974304;28;20015;-79
2021/04/07 01:07:55;;;;;;;4.60;1.00;;;20.80;32.10;;;;;;4962489;28;20034;-79
2021/04/07 01:10:20;;;;;;;1.33;0.52;;;20.80;32.10;;;;;;4988746;28;20038;-78
2021/04/07 01:12:46;;;;;;;3.22;0.60;;;20.80;32.70;;;;;;4975728;28;20533;-78
2021/04/07 01:15:12;;;;;;;2.90;0.90;;;20.80;32.10;;;;;;4977090;28;20410;-78
2021/04/07 01:17:38;;;;;;;1.15;0.88;;;20.70;32.00;;;;;;4974135;28;20030;-78
2021/04/07 01:20:08;;;;;;;0.77;0.47;;;20.80;32.10;;;;;;4974105;28;20043;-78
2021/04/07 01:22:35;;;;;;;4.45;0.90;;;20.70;32.00;;;;;;4986496;28;20462;-78
2021/04/07 01:25:01;;;;;;;2.15;0.90;;;20.70;32.00;;;;;;4964844;28;20038;-78
2021/04/07 01:27:26;;;;;;;2.47;0.90;;;20.70;32.00;;;;;;4971821;28;20553;-78
2021/04/07 01:29:52;;;;;;;3.95;0.73;;;20.70;31.90;;;;;;4943052;28;20039;-78
2021/04/07 01:32:17;;;;;;;1.58;0.50;;;20.70;32.10;;;;;;4994030;28;20049;-80
2021/04/07 01:34:44;;;;;;;3.05;0.50;;;20.70;32.10;;;;;;4999102;28;20042;-81
2021/04/07 01:37:11;;;;;;;3.42;0.77;;;20.70;32.10;;;;;;4963924;28;20118;-81
2021/04/07 01:39:37;;;;;;;1.38;0.63;;;20.70;32.70;;;;;;4978337;28;20125;-81
2021/04/07 01:42:03;;;;;;;0.20;0.20;;;20.70;32.10;;;;;;4963146;28;20109;-81
2021/04/07 01:44:28;;;;;;;3.03;0.70;;;20.70;32.00;;;;;;4977068;28;20098;-82
2021/04/07 01:46:54;;;;;;;3.50;0.82;;;20.70;32.10;;;;;;4982646;28;20109;-82
2021/04/07 01:49:19;;;;;;;1.40;0.63;;;20.60;32.10;;;;;;4980752;28;20037;-81
2021/04/07 01:51:45;;;;;;;2.33;0.55;;;20.60;32.10;;;;;;4977460;28;20050;-82
2021/04/07 01:54:12;;;;;;;4.32;0.70;;;20.60;32.00;;;;;;5001144;28;20042;-82
2021/04/07 01:56:54;;;;;;;2.17;0.88;;;20.60;32.10;;;;;;4977920;28;20569;-82
2021/04/07 01:59:29;;;;;;;0.75;0.50;;;20.60;32.10;;;;;;4972294;28;20105;-81
2021/04/07 02:01:55;;;;;;;4.22;0.77;;;20.60;32.20;;;;;;5003946;28;20576;-82
2021/04/07 02:04:21;;;;;;;4.28;0.70;;;20.60;32.10;;;;;;4994057;28;20034;-82
2021/04/07 02:06:47;;;;;;;1.83;0.60;;;20.60;32.10;;;;;;4979082;28;20033;-70
2021/04/07 02:09:12;;;;;;;1.17;0.40;;;20.60;32.10;;;;;;4995807;28;20411;-70
2021/04/07 02:11:49;;;;;;;0.98;0.45;;;20.60;32.00;;;;;;4980230;28;20061;-71
2021/04/07 02:14:24;;;;;;;2.92;0.75;;;20.50;31.90;;;;;;5009694;28;20032;-71
2021/04/07 02:16:57;;;;;;;2.38;0.88;;;20.60;32.00;;;;;;4977345;28;20109;-71
2021/04/07 02:19:23;;;;;;;1.20;0.30;;;20.50;32.00;;;;;;4985683;28;20046;-71
2021/04/07 02:22:09;;;;;;;1.00;0.47;;;20.60;31.90;;;;;;4979379;28;20038;-71
2021/04/07 02:24:42;;;;;;;1.27;0.52;;;20.50;31.90;;;;;;4994316;28;20490;-81
2021/04/07 02:27:11;;;;;;;1.92;0.60;;;20.60;31.90;;;;;;4994575;28;20080;-80
2021/04/07 02:29:37;;;;;;;1.83;0.50;;;20.60;32.00;;;;;;4978377;28;20037;-80
2021/04/07 02:32:04;;;;;;;1.67;0.43;;;20.60;32.00;;;;;;4976020;28;20058;-81
2021/04/07 02:34:30;;;;;;;4.43;0.55;;;20.50;31.90;;;;;;4976049;28;20031;-80
2021/04/07 02:40:18;;;;;;;1.70;0.57;;;20.60;32.00;;;;;;4992713;28;20092;-80
2021/04/07 02:42:43;;;;;;;2.35;0.60;;;20.60;31.90;;;;;;4979497;28;20474;-80
2021/04/07 02:45:10;;;;;;;4.35;0.30;;;20.60;32.00;;;;;;4987355;28;20094;-80
2021/04/07 02:47:36;;;;;;;0.70;0.30;;;20.50;31.90;;;;;;4990277;28;20050;-80
2021/04/07 02:50:01;;;;;;;1.63;0.60;;;20.50;31.80;;;;;;4973480;28;20061;-77
2021/04/07 02:52:27;;;;;;;1.45;0.20;;;20.50;31.90;;;;;;4994353;28;20038;-78
2021/04/07 02:54:52;;;;;;;1.92;0.40;;;20.50;31.90;;;;;;5011337;28;20081;-78
2021/04/07 02:57:18;;;;;;;1.45;0.68;;;20.50;32.00;;;;;;4993740;28;20101;-78
2021/04/07 02:59:43;;;;;;;0.70;0.45;;;20.50;32.10;;;;;;4993700;28;20034;-79
2021/04/07 03:02:09;;;;;;;1.38;0.60;;;20.50;32.00;;;;;;4995027;28;20014;-79
2021/04/07 03:04:35;;;;;;;1.70;0.60;;;20.50;32.00;;;;;;4996068;28;20077;-80
2021/04/07 03:07:00;;;;;;;0.63;0.40;;;20.50;32.10;;;;;;4993183;28;20062;-80
2021/04/07 03:09:26;;;;;;;0.80;0.35;;;20.40;32.00;;;;;;4984875;28;20031;-80
2021/04/07 03:11:51;;;;;;;0.68;0.45;;;20.50;32.20;;;;;;4976401;28;20057;-80
2021/04/07 03:14:17;;;;;;;1.30;0.52;;;20.40;32.00;;;;;;4993615;28;20062;-78
2021/04/07 03:16:43;;;;;;;1.35;0.47;;;20.40;32.00;;;;;;4990971;28;20034;-79
2021/04/07 03:19:08;;;;;;;0.90;0.30;;;20.40;32.10;;;;;;5004820;28;20042;-80
2021/04/07 03:21:34;;;;;;;2.63;0.60;;;20.40;32.10;;;;;;4979458;28;20021;-80
2021/04/07 03:23:59;;;;;;;1.77;0.45;;;20.40;32.00;;;;;;4993144;28;20110;-76
2021/04/07 03:26:25;;;;;;;1.17;0.50;;;20.40;32.00;;;;;;4994335;28;20026;-75
2021/04/07 03:28:50;;;;;;;1.13;0.40;;;20.40;32.10;;;;;;4972758;28;20046;-75
2021/04/07 03:31:16;;;;;;;1.73;0.60;;;20.40;32.10;;;;;;4975347;28;20074;-79
2021/04/07 03:33:42;;;;;;;0.90;0.50;;;20.40;32.10;;;;;;4992635;28;20414;-78
2021/04/07 03:36:07;;;;;;;2.05;0.40;;;20.40;32.10;;;;;;4990922;28;20058;-77
2021/04/07 03:38:33;;;;;;;1.70;0.50;;;20.40;32.20;;;;;;4988324;28;20514;-77
2021/04/07 03:40:59;;;;;;;2.25;0.70;;;20.30;32.20;;;;;;5007941;28;20039;-77
2021/04/07 03:43:24;;;;;;;1.80;0.60;;;20.40;32.20;;;;;;4989794;28;20031;-77
2021/04/07 03:45:55;;;;;;;2.00;0.50;;;20.30;32.20;;;;;;4973707;28;20220;-78
2021/04/07 03:48:25;;;;;;;2.50;0.40;;;20.30;32.80;;;;;;4957182;28;20093;-77
2021/04/07 03:50:50;;;;;;;0.60;0.25;;;20.30;32.30;;;;;;4994131;28;20022;-78
2021/04/07 03:53:16;;;;;;;1.13;0.65;;;20.30;32.20;;;;;;5004702;28;20517;-77
2021/04/07 03:55:44;;;;;;;3.08;0.75;;;20.30;32.30;;;;;;5004287;28;20034;-78
2021/04/07 03:58:09;;;;;;;2.70;0.50;;;20.30;32.30;;;;;;4990606;28;20061;-79
2021/04/07 04:00:35;;;;;;;0.80;0.25;;;20.30;32.30;;;;;;4989624;28;20031;-80
2021/04/07 04:03:01;;;;;;;2.80;0.70;;;20.30;32.20;;;;;;4987541;28;20046;-80
2021/04/07 04:05:26;;;;;;;0.20;0.20;;;20.30;32.20;;;;;;4974933;28;20018;-79
2021/04/07 04:07:52;;;;;;;0.22;0.13;;;20.30;32.20;;;;;;5006356;28;20446;-80
2021/04/07 04:10:18;;;;;;;1.00;0.50;;;20.30;32.10;;;;;;4975172;28;20026;-80
2021/04/07 04:12:43;;;;;;;2.20;0.57;;;20.30;32.10;;;;;;4975257;28;20034;-80
2021/04/07 04:15:10;;;;;;;3.63;0.90;;;20.30;32.20;;;;;;4991901;28;20022;-80
2021/04/07 04:17:39;;;;;;;1.85;0.52;;;20.30;32.00;;;;;;4991262;28;20483;-80
2021/04/07 04:20:05;;;;;;;0.43;0.10;;;20.30;32.10;;;;;;4992681;28;20537;-81
2021/04/07 04:22:31;;;;;;;1.20;0.40;;;20.30;32.00;;;;;;4993227;28;20045;-80
2021/04/07 04:24:57;;;;;;;0.20;0.10;;;20.30;32.10;;;;;;4956116;28;20031;-80
2021/04/07 04:27:22;;;;;;;1.50;0.68;;;20.30;31.90;;;;;;4968661;28;20050;-80
2021/04/07 04:29:48;;;;;;;0.35;0.22;;;20.30;32.70;;;;;;4988577;28;20410;-81
2021/04/07 04:32:14;;;;;;;5.72;1.48;;;20.30;31.80;;;;;;4996201;28;20709;-80
2021/04/07 04:34:39;;;;;;;0.73;0.28;;;20.30;31.80;;;;;;4986935;28;20030;-81
2021/04/07 04:37:05;;;;;;;0.80;0.10;;;20.30;31.70;;;;;;4994458;28;20518;-81
2021/04/07 04:39:30;;;;;;;2.65;0.98;;;20.20;31.80;;;;;;4991772;28;20031;-81
2021/04/07 04:41:56;;;;;;;0.20;0.20;;;20.30;31.90;;;;;;5011767;28;20406;-81
2021/04/07 04:44:21;;;;;;;2.85;0.88;;;20.20;31.80;;;;;;4996435;28;20128;-81
2021/04/07 04:46:47;;;;;;;0.28;0.20;;;20.20;31.80;;;;;;4978417;28;20394;-81
2021/04/07 04:49:13;;;;;;;0.00;0.00;;;20.30;31.90;;;;;;4963178;28;20046;-81
2021/04/07 04:51:38;;;;;;;1.02;0.40;;;20.20;31.90;;;;;;4992227;28;20026;-77
2021/04/07 04:54:04;;;;;;;2.67;0.45;;;20.20;31.90;;;;;;4995576;28;20065;-78
2021/04/07 04:56:30;;;;;;;3.67;0.80;;;20.20;31.80;;;;;;4995343;28;20061;-77
2021/04/07 04:58:55;;;;;;;0.28;0.00;;;20.20;31.90;;;;;;4994556;28;20487;-77
2021/04/07 05:01:21;;;;;;;4.40;1.02;;;20.20;31.90;;;;;;4998346;28;20080;-79
2021/04/07 05:03:47;;;;;;;0.38;0.20;;;20.20;31.80;;;;;;4978903;28;20040;-79
2021/04/07 05:06:12;;;;;;;0.20;0.17;;;20.10;31.90;;;;;;5008103;28;20027;-80
2021/04/07 05:08:38;;;;;;;3.78;0.82;;;20.20;31.90;;;;;;4995404;28;20026;-78
2021/04/07 05:11:03;;;;;;;0.95;0.30;;;20.10;32.10;;;;;;4995164;28;20438;-79
2021/04/07 05:16:51;;;;;;;3.72;0.20;;;20.20;32.30;;;;;;4993717;28;20025;-79
2021/04/07 05:19:16;;;;;;;2.10;0.80;;;20.20;32.40;;;;;;4988372;28;20453;-78
2021/04/07 05:21:42;;;;;;;1.33;0.13;;;20.30;32.30;;;;;;4973784;28;20034;-72
2021/04/07 05:24:08;;;;;;;0.40;0.17;;;20.30;32.20;;;;;;4993144;28;20026;-73
2021/04/07 05:26:37;;;;;;;2.97;0.60;;;20.40;32.30;;;;;;4974605;28;20089;-73
2021/04/07 05:29:03;;;;;;;6.60;0.15;;;20.40;32.10;;;;;;4989191;28;20031;-73
2021/04/07 05:31:29;;;;;;;2.33;1.10;;;20.50;32.10;;;;;;4959502;28;20510;-73
2021/04/07 05:33:54;;;;;;;2.53;0.20;;;20.60;31.90;;;;;;4969560;28;20038;-72
2021/04/07 05:36:20;;;;;;;0.00;0.00;;;20.70;31.80;;;;;;4975240;28;20038;-72
2021/04/07 05:38:55;;;;;;;1.63;0.57;;;20.70;31.60;;;;;;4977874;28;20083;-71
2021/04/07 05:41:21;;;;;;;0.10;0.10;;;20.80;31.50;;;;;;4960280;28;20422;-72
2021/04/07 05:43:46;;;;;;;4.30;1.42;;;21.00;31.60;;;;;;4970624;28;20282;-70
2021/04/07 05:46:13;;;;;;;0.00;0.00;;;21.10;31.10;;;;;;4991162;28;20037;-71
2021/04/07 05:48:39;;;;;;;0.00;0.00;;;21.10;30.90;;;;;;4975843;28;20041;-70
2021/04/07 05:51:05;;;;;;;2.35;0.95;;;21.20;30.80;;;;;;4976116;28;20558;-71
2021/04/07 05:53:30;;;;;;;4.10;0.40;;;21.30;30.70;;;;;;4976029;28;20038;-71
2021/04/07 05:55:56;;;;;;;0.28;0.10;;;21.40;30.60;;;;;;4983737;28;20034;-70
2021/04/07 05:58:22;;;;;;;1.33;0.70;;;21.40;30.40;;;;;;4974185;28;20074;-70
2021/04/07 06:00:48;;;;;;;0.00;0.00;;;21.40;30.50;;;;;;5004468;28;20062;-70
2021/04/07 06:03:14;;;;;;;4.90;1.38;;;21.50;30.40;;;;;;4974330;28;20027;-71
2021/04/07 06:05:42;;;;;;;0.55;0.20;;;21.50;30.30;;;;;;5009845;28;20023;-71
2021/04/07 06:08:08;;;;;;;0.95;0.20;;;21.60;30.10;;;;;;4992355;28;20490;-71
2021/04/07 06:10:36;;;;;;;3.53;1.38;;;21.60;30.10;;;;;;4975098;28;20052;-70
2021/04/07 06:13:02;;;;;;;0.00;0.00;;;21.70;30.10;;;;;;4976626;28;20026;-71
2021/04/07 06:15:28;;;;;;;0.00;0.00;;;21.70;30.00;;;;;;4976816;28;20045;-70
2021/04/07 06:17:55;;;;;;;3.83;1.58;;;21.80;30.00;;;;;;4993188;28;20117;-70
2021/04/07 06:20:25;;;;;;;0.77;0.20;;;21.80;30.00;;;;;;4976010;28;20023;-70
2021/04/07 06:22:51;;;;;;;0.10;0.10;;;21.90;29.90;;;;;;4977053;28;20022;-70
2021/04/07 06:25:32;;;;;;;3.28;1.35;;;21.90;29.80;;;;;;4991351;28;20029;-71
2021/04/07 06:27:59;;;;;;;0.75;0.28;;;21.90;29.80;;;;;;4994822;28;20030;-72
2021/04/07 06:30:47;;;;;;;0.47;0.15;;;22.00;29.60;;;;;;4986128;28;20080;-70
2021/04/07 06:33:14;;;;;;;0.35;0.20;;;22.00;29.60;;;;;;4972603;28;20042;-71
2021/04/07 06:35:41;;;;;;;0.55;0.30;;;22.00;29.60;;;;;;4967179;28;20034;-71
2021/04/07 06:38:06;;;;;;;3.78;1.48;;;22.00;29.50;;;;;;4992235;28;20037;-75
2021/04/07 06:40:32;;;;;;;0.20;0.00;;;22.00;29.50;;;;;;4977018;28;20038;-75
2021/04/07 06:43:02;;;;;;;0.55;0.13;;;21.90;29.50;;;;;;4976670;28;20043;-75
2021/04/07 06:45:31;;;;;;;2.13;1.00;;;22.00;29.50;;;;;;4976091;28;20046;-76
2021/04/07 06:47:56;;;;;;;0.73;0.08;;;21.90;29.60;;;;;;4974759;28;20077;-76
2021/04/07 06:50:23;;;;;;;0.20;0.20;;;21.90;29.70;;;;;;4992697;28;20026;-76
2021/04/07 06:52:49;;;;;;;4.95;1.30;;;21.90;29.60;;;;;;4975595;28;20051;-76
2021/04/07 06:55:16;;;;;;;2.50;0.20;;;21.90;29.70;;;;;;4993081;28;20022;-75
2021/04/07 06:57:43;;;;;;;0.10;0.10;;;21.90;29.70;;;;;;4989280;28;20510;-76
2021/04/07 07:00:09;;;;;;;3.63;0.93;;;21.90;29.80;;;;;;4976760;28;20030;-76
2021/04/07 07:02:34;;;;;;;0.32;0.20;;;21.90;29.80;;;;;;4992997;28;20025;-76
2021/04/07 07:05:01;;;;;;;0.10;0.10;;;21.80;29.70;;;;;;4976235;28;20030;-75
2021/04/07 07:07:30;;;;;;;2.20;0.60;;;21.80;29.70;;;;;;4976336;28;20053;-75
2021/04/07 07:09:56;;;;;;;1.40;0.50;;;21.80;29.90;;;;;;4976303;28;20115;-75
2021/04/07 07:12:22;;;;;;;0.80;0.20;;;21.80;29.90;;;;;;4993063;28;20053;-75
2021/04/07 07:14:53;;;;;;;1.27;0.70;;;21.70;29.80;;;;;;4956574;28;20097;-75
2021/04/07 07:17:33;;;;;;;0.00;0.00;;;21.70;29.80;;;;;;4983715;28;20030;-76
2021/04/07 07:19:58;;;;;;;0.10;0.10;;;21.70;29.80;;;;;;4992899;28;20371;-76
2021/04/07 07:22:26;;;;;;;2.08;0.75;;;21.70;29.90;;;;;;4975057;28;20049;-76
2021/04/07 07:25:02;;;;;;;0.30;0.30;;;21.70;29.90;;;;;;4973636;28;20038;-75
2021/04/07 07:27:41;;;;;;;1.40;0.20;;;21.60;29.80;;;;;;4977055;28;20032;-75
2021/04/07 07:30:08;;;;;;;2.03;1.05;;;21.60;29.80;;;;;;4977383;28;20062;-75
2021/04/07 07:32:35;;;;;;;0.08;0.08;;;21.60;29.90;;;;;;4990595;28;20026;-75
2021/04/07 07:35:09;;;;;;;0.88;0.40;;;21.60;29.80;;;;;;4975456;28;20046;-70
2021/04/07 07:37:34;;;;;;;3.50;1.58;;;21.60;29.90;;;;;;4981065;28;20049;-70
2021/04/07 07:40:00;;;;;;;5.00;1.13;;;21.60;29.90;;;;;;4993521;28;20514;-71
2021/04/07 07:42:27;;;;;;;0.30;0.10;;;21.60;29.90;;;;;;4973888;28;20494;-70
2021/04/07 07:44:52;;;;;;;6.28;0.35;;;21.60;30.00;;;;;;4975186;28;20552;-70
2021/04/07 07:47:21;;;;;;;1.63;0.55;;;21.60;30.00;;;;;;4958569;28;20065;-70
2021/04/07 07:50:01;;;;;;;0.55;0.40;;;21.50;30.00;;;;;;4975466;28;20026;-70
2021/04/07 07:52:27;;;;;;;0.85;0.10;;;21.60;30.00;;;;;;5007390;28;20023;-70
2021/04/07 07:54:53;;;;;;;1.27;0.77;;;21.60;30.00;;;;;;4974853;28;20035;-74
2021/04/07 07:57:19;;;;;;;0.45;0.28;;;21.60;30.00;;;;;;4959550;28;20041;-74
2021/04/07 07:59:44;;;;;;;0.10;0.10;;;21.50;29.90;;;;;;4991127;28;20054;-75
2021/04/07 08:02:18;;;;;;;1.08;0.22;;;21.50;30.30;;;;;;4991772;28;20038;-75
2021/04/07 08:04:48;;;;;;;1.75;0.85;;;21.50;30.00;;;;;;4964573;28;20050;-76
2021/04/07 08:07:14;;;;;;;0.03;0.00;;;21.50;30.00;;;;;;4992890;28;20018;-77
2021/04/07 08:09:40;;;;;;;0.28;0.13;;;21.50;30.00;;;;;;4988640;28;20034;-79
2021/04/07 08:12:10;;;;;;;2.65;1.35;;;21.50;30.10;;;;;;4971549;28;20494;-77
2021/04/07 08:14:36;;;;;;;1.38;0.25;;;21.50;30.10;;;;;;5002473;28;20026;-77
2021/04/07 08:17:02;;;;;;;1.85;0.20;;;21.50;30.00;;;;;;4973599;28;20089;-78
2021/04/07 08:19:28;;;;;;;0.10;0.10;;;21.50;30.10;;;;;;5003036;28;20027;-77
2021/04/07 08:21:53;;;;;;;2.33;1.10;;;21.50;30.10;;;;;;5007539;28;20069;-77
2021/04/07 08:24:19;;;;;;;0.70;0.30;;;21.50;30.30;;;;;;5006304;28;20110;-78
2021/04/07 08:26:45;;;;;;;0.10;0.10;;;21.50;30.10;;;;;;4964764;28;20466;-76
2021/04/07 08:29:10;;;;;;;0.80;0.10;;;21.50;30.10;;;;;;4958080;28;20092;-78
2021/04/07 08:31:36;;;;;;;3.20;0.73;;;21.50;30.10;;;;;;5005426;28;20046;-71
2021/04/07 08:34:03;;;;;;;0.00;0.00;;;21.60;30.10;;;;;;4991162;28;20114;-72
2021/04/07 08:36:29;;;;;;;1.13;0.30;;;21.60;30.00;;;;;;4992272;28;20437;-70
2021/04/07 08:39:03;;;;;;;0.22;0.20;;;21.60;30.00;;;;;;5004194;28;20046;-72
2021/04/07 08:41:28;;;;;;;0.45;0.25;;;21.60;29.90;;;;;;4984938;28;20073;-71
2021/04/07 08:43:54;;;;;;;3.05;1.00;;;21.60;29.80;;;;;;4990406;28;20022;-70
2021/04/07 08:46:23;;;;;;;0.57;0.30;;;21.60;29.90;;;;;;4975450;28;20022;-71
2021/04/07 08:48:49;;;;;;;0.80;0.22;;;21.60;29.90;;;;;;5005572;28;20097;-71
2021/04/07 08:51:15;;;;;;;3.05;0.25;;;21.60;30.00;;;;;;4988987;28;20161;-71
2021/04/07 08:53:42;;;;;;;1.33;0.47;;;21.60;30.00;;;;;;4990269;28;20023;-72
2021/04/07 08:56:13;;;;;;;0.28;0.15;;;21.60;30.00;;;;;;4987524;28;20509;-77
2021/04/07 08:58:53;;;;;;;7.28;0.52;;;21.60;30.10;;;;;;4986798;28;20061;-77
2021/04/07 09:01:35;;;;;;;2.42;0.55;;;21.70;30.10;;;;;;4989732;28;20069;-71
2021/04/07 09:04:12;;;;;;;0.05;0.05;;;21.70;30.10;;;;;;4985966;28;20053;-72
2021/04/07 09:06:39;;;;;;;0.52;0.22;;;21.70;30.00;;;;;;4989547;28;20039;-71
2021/04/07 09:09:05;;;;;;;0.13;0.13;;;21.70;30.00;;;;;;5005800;28;20526;-72
2021/04/07 09:11:34;;;;;;;0.30;0.30;;;21.70;30.00;;;;;;4972506;28;20089;-72
2021/04/07 09:14:01;;;;;;;0.30;0.22;;;21.70;30.00;;;;;;4995261;28;20068;-70
2021/04/07 09:16:44;;;;;;;0.00;0.00;;;21.70;30.00;;;;;;4972159;28;20026;-70
2021/04/07 09:19:26;;;;;;;0.35;0.30;;;21.80;30.00;;;;;;4988533;28;20027;-71
2021/04/07 09:21:53;;;;;;;0.45;0.22;;;21.80;30.00;;;;;;4973464;28;20050;-71
2021/04/07 09:24:19;;;;;;;0.20;0.20;;;21.80;30.00;;;;;;4972630;28;20031;-72
2021/04/07 09:26:46;;;;;;;1.48;0.50;;;21.80;30.00;;;;;;4989531;28;20506;-71
2021/04/07 09:29:13;;;;;;;0.80;0.30;;;21.80;30.00;;;;;;4983157;28;20031;-70
2021/04/07 09:31:39;;;;;;;0.10;0.10;;;21.80;30.00;;;;;;5005122;28;20494;-72
2021/04/07 09:34:05;;;;;;;0.15;0.10;;;21.80;30.00;;;;;;5001515;28;20610;-72
2021/04/07 09:36:31;;;;;;;1.35;0.17;;;21.80;30.00;;;;;;4994566;28;20074;-72
2021/04/07 09:38:58;;;;;;;0.70;0.22;;;21.80;30.00;;;;;;4991652;28;20540;-73
2021/04/07 09:41:26;;;;;;;0.10;0.05;;;21.80;30.00;;;;;;4959941;28;20065;-73
2021/04/07 09:43:52;;;;;;;0.43;0.10;;;21.80;30.00;;;;;;4969767;28;20109;-72
2021/04/07 09:46:18;;;;;;;1.27;0.32;;;21.80;30.00;;;;;;4985537;28;20478;-72
2021/04/07 09:48:44;;;;;;;0.13;0.13;;;21.70;30.00;;;;;;4968407;28;20038;-72
2021/04/07 09:51:23;;;;;;;0.20;0.20;;;21.80;30.00;;;;;;4974402;28;20114;-71
2021/04/07 09:53:52;;;;;;;0.43;0.30;;;21.80;30.00;;;;;;4974382;28;20125;-72
2021/04/07 09:56:18;;;;;;;0.93;0.30;;;21.90;30.00;;;;;;4976752;28;20545;-72
2021/04/07 09:58:48;;;;;;;0.17;0.17;;;21.90;29.50;;;;;;4992819;28;20022;-71
2021/04/07 10:01:17;;;;;;;0.57;0.30;;;21.90;29.90;;;;;;4988799;28;20033;-71
2021/04/07 10:03:53;;;;;;;0.43;0.40;;;21.90;29.80;;;;;;4993256;28;20033;-72
2021/04/07 10:06:23;;;;;;;0.30;0.10;;;22.00;29.80;;;;;;4960085;28;20445;-72
2021/04/07 10:09:01;;;;;;;0.45;0.22;;;22.00;29.80;;;;;;4977073;28;20461;-72
2021/04/07 10:11:26;;;;;;;0.30;0.20;;;22.00;29.80;;;;;;4984191;28;20049;-72
2021/04/07 10:13:54;;;;;;;0.13;0.05;;;22.10;29.80;;;;;;4977251;28;20506;-73
2021/04/07 10:16:20;;;;;;;0.05;0.05;;;22.10;29.70;;;;;;4991906;28;20538;-71
2021/04/07 10:18:46;;;;;;;0.30;0.30;;;22.10;29.70;;;;;;4993517;28;20058;-72
2021/04/07 10:21:13;;;;;;;1.08;0.52;;;22.10;29.70;;;;;;4976787;28;20058;-71
2021/04/07 10:23:39;;;;;;;0.20;0.20;;;22.20;29.70;;;;;;4992665;28;20017;-72
2021/04/07 10:26:05;;;;;;;0.40;0.22;;;22.10;29.60;;;;;;4992600;28;20038;-71
2021/04/07 10:28:31;;;;;;;0.00;0.00;;;22.10;29.50;;;;;;4992362;28;20030;-71
2021/04/07 10:30:56;;;;;;;0.20;0.20;;;22.20;30.00;;;;;;5006413;28;20498;-71
2021/04/07 10:33:28;;;;;;;0.65;0.13;;;22.20;29.60;;;;;;4995799;28;20046;-71
2021/04/07 10:36:00;;;;;;;0.50;0.20;;;22.10;29.50;;;;;;4988630;28;20050;-71
2021/04/07 10:38:36;;;;;;;0.30;0.20;;;22.10;29.60;;;;;;4959024;28;20122;-71
2021/04/07 10:41:03;;;;;;;0.47;0.28;;;22.10;29.60;;;;;;5007758;28;20394;-71
2021/04/07 10:43:30;;;;;;;0.30;0.15;;;22.10;30.00;;;;;;4992320;28;20026;-72
2021/04/07 10:46:03;;;;;;;3.63;0.10;;;22.10;29.50;;;;;;4992682;28;20022;-71
2021/04/07 10:48:29;;;;;;;1.73;0.57;;;22.10;29.50;;;;;;5006361;28;20490;-71
2021/04/07 10:50:56;;;;;;;0.22;0.20;;;22.10;29.50;;;;;;5008254;28;20036;-72
2021/04/07 10:53:28;;;;;;;0.10;0.10;;;22.10;29.50;;;;;;4976665;28;20038;-72
2021/04/07 10:55:54;;;;;;;0.40;0.20;;;22.10;29.50;;;;;;4979227;28;20493;-72
2021/04/07 10:58:29;;;;;;;1.08;0.38;;;22.10;29.50;;;;;;4976730;28;20030;-72
2021/04/07 11:00:55;;;;;;;0.22;0.03;;;22.10;29.50;;;;;;4995396;28;20054;-72
2021/04/07 11:03:34;;;;;;;0.25;0.20;;;22.10;29.60;;;;;;4994405;28;20026;-72
2021/04/07 11:05:59;;;;;;;0.68;0.30;;;22.10;29.60;;;;;;4963489;28;20114;-72
2021/04/07 11:08:35;;;;;;;0.10;0.10;;;22.10;29.60;;;;;;4977663;28;20113;-72
2021/04/07 11:11:01;;;;;;;2.53;0.45;;;22.10;29.50;;;;;;4994278;28;20053;-72
2021/04/07 11:13:31;;;;;;;2.63;0.47;;;22.10;29.60;;;;;;4980536;28;20030;-73
2021/04/07 11:16:09;;;;;;;1.65;0.38;;;22.10;29.50;;;;;;4973153;28;20022;-73
2021/04/07 11:18:35;;;;;;;1.00;0.13;;;22.10;30.00;;;;;;4974932;28;20026;-73
2021/04/07 11:21:02;;;;;;;0.75;0.20;;;22.00;29.50;;;;;;4975470;28;20105;-72
2021/04/07 11:23:28;;;;;;;0.20;0.10;;;22.00;29.50;;;;;;4975889;28;20018;-72
2021/04/07 11:25:53;;;;;;;0.20;0.20;;;22.00;29.60;;;;;;4975208;28;20065;-72
2021/04/07 11:28:20;;;;;;;0.32;0.20;;;22.00;29.60;;;;;;4990347;28;20058;-72
2021/04/07 11:33:44;;;;;;;0.25;0.25;;;21.90;29.70;;;;;;4977109;28;20069;-72
2021/04/07 11:46:34;;;;;;;0.28;0.20;;;21.80;29.80;;;;;;4955937;28;20077;-72
2021/04/07 11:48:59;;;;;;;0.50;0.30;;;21.80;29.80;;;;;;4955346;28;20678;-73
2021/04/07 11:51:25;;;;;;;0.00;0.00;;;21.80;29.80;;;;;;4970373;28;20105;-73
2021/04/07 11:53:51;;;;;;;0.60;0.10;;;21.80;29.90;;;;;;4967256;28;20049;-72
2021/04/07 11:56:17;;;;;;;0.65;0.25;;;21.80;29.90;;;;;;4965484;28;20057;-73
2021/04/07 11:58:42;;;;;;;0.20;0.10;;;21.70;29.90;;;;;;4949136;28;20037;-72
2021/04/07 12:01:08;;;;;;;1.85;0.60;;;21.70;29.90;;;;;;4950091;28;20039;-72
2021/04/07 12:03:34;;;;;;;1.13;0.40;;;21.70;29.90;;;;;;4956096;28;20035;-72
2021/04/07 12:06:00;;;;;;;0.52;0.30;;;21.70;29.90;;;;;;4943803;28;20022;-73
2021/04/07 12:08:26;;;;;;;0.40;0.20;;;21.70;30.00;;;;;;4952516;28;20066;-72
2021/04/07 12:10:51;;;;;;;1.52;0.13;;;21.70;30.00;;;;;;4963064;28;20031;-72
2021/04/07 12:13:17;;;;;;;2.83;0.47;;;21.70;30.00;;;;;;4957994;28;20495;-72
2021/04/07 12:15:43;;;;;;;0.05;0.05;;;21.70;30.00;;;;;;4970895;28;20051;-72
2021/04/07 12:18:08;;;;;;;0.47;0.35;;;21.70;30.00;;;;;;4974013;28;20106;-73
2021/04/07 12:20:34;;;;;;;1.27;0.30;;;21.70;30.00;;;;;;4978461;28;20022;-72
2021/04/07 12:23:01;;;;;;;0.68;0.40;;;21.70;30.00;;;;;;4974032;28;20046;-72
2021/04/07 12:25:27;;;;;;;0.05;0.05;;;21.70;30.00;;;;;;4972437;28;20038;-72
2021/04/07 12:27:52;;;;;;;1.40;0.68;;;21.70;30.00;;;;;;4974027;28;20113;-72
2021/04/07 12:30:19;;;;;;;3.50;0.80;;;21.70;30.00;;;;;;4992202;28;20033;-72
2021/04/07 12:32:45;;;;;;;1.48;0.20;;;21.70;30.00;;;;;;4975315;28;20508;-70
2021/04/07 12:35:12;;;;;;;0.50;0.35;;;21.70;30.00;;;;;;4971850;28;20118;-72
2021/04/07 12:37:41;;;;;;;2.28;0.50;;;21.70;30.00;;;;;;4944544;28;20466;-71
2021/04/07 12:40:07;;;;;;;0.20;0.10;;;21.70;30.00;;;;;;4955973;28;20104;-72
2021/04/07 12:42:33;;;;;;;4.78;0.55;;;21.70;30.00;;;;;;4960004;28;20507;-71
2021/04/07 12:44:58;;;;;;;0.93;0.20;;;21.70;30.00;;;;;;4960680;28;20030;-71
2021/04/07 12:47:24;;;;;;;0.20;0.20;;;21.70;30.00;;;;;;4973398;28;20054;-73
2021/04/07 12:49:49;;;;;;;5.93;0.85;;;21.70;30.00;;;;;;4969687;28;20724;-72
2021/04/07 12:52:15;;;;;;;3.10;0.38;;;21.70;30.60;;;;;;4969841;28;20106;-72
2021/04/07 12:54:41;;;;;;;0.73;0.38;;;21.70;30.00;;;;;;4972328;28;20574;-72
2021/04/07 12:57:06;;;;;;;1.00;0.30;;;21.80;30.00;;;;;;4972779;28;20034;-72
2021/04/07 12:59:32;;;;;;;0.40;0.40;;;21.80;29.90;;;;;;4953827;28;20034;-72
2021/04/07 13:01:58;;;;;;;1.00;0.30;;;21.80;29.90;;;;;;4955771;28;20141;-72
2021/04/07 13:04:32;;;;;;;0.40;0.40;;;21.90;29.90;;;;;;4975283;28;20093;-72
2021/04/07 13:06:58;;;;;;;2.63;0.37;;;21.90;29.80;;;;;;4974151;28;20041;-72
2021/04/07 13:09:23;;;;;;;1.27;0.40;;;21.90;29.70;;;;;;4967027;28;20030;-72
2021/04/07 13:11:49;;;;;;;0.10;0.10;;;21.90;29.70;;;;;;4976356;28;20031;-72